Time;durP1;ratioP1;P1;durP2;ratioP2;P2;SDS_P1;SDS_P2;PMS_P1;PMS_P2;Temp;Humidity;BMP_temperature;BMP_pressure;BME280_temperature;BME280_humidity;BME280_pressure;Samples;Min_cycle;Max_cycle;Signal;HPM_P1;HPM_P2
2021/08/17 00:01:13;;;;;;;0.30;0.30;;;13.90;99.90;;;;;;4430003;32;20124;-65
2021/08/17 00:03:38;;;;;;;0.30;0.30;;;13.90;99.90;;;;;;4430708;32;20073;-65
2021/08/17 00:06:05;;;;;;;0.30;0.30;;;13.90;99.90;;;;;;4429357;32;20078;-66
2021/08/17 00:08:30;;;;;;;0.50;0.50;;;13.90;99.90;;;;;;4430342;32;20098;-65
2021/08/17 00:10:58;;;;;;;0.65;0.65;;;13.90;99.90;;;;;;4430285;32;20494;-65
2021/08/17 00:13:23;;;;;;;0.30;0.30;;;13.90;99.90;;;;;;4430391;32;20065;-65
2021/08/17 00:15:49;;;;;;;0.65;0.40;;;13.90;99.90;;;;;;4428839;32;20072;-65
2021/08/17 00:18:15;;;;;;;0.30;0.30;;;13.90;99.90;;;;;;4430892;32;20072;-65
2021/08/17 00:20:41;;;;;;;0.62;0.45;;;14.00;99.90;;;;;;4445337;32;20123;-65
2021/08/17 00:23:07;;;;;;;2.50;0.55;;;14.00;99.90;;;;;;4444878;32;20086;-65
2021/08/17 00:25:34;;;;;;;0.22;0.22;;;14.00;99.90;;;;;;4445461;32;20068;-65
2021/08/17 00:27:59;;;;;;;0.52;0.43;;;14.00;99.90;;;;;;4442661;32;20127;-66
2021/08/17 00:30:25;;;;;;;0.25;0.25;;;14.10;99.90;;;;;;4444455;32;20077;-66
2021/08/17 00:32:50;;;;;;;1.02;0.62;;;14.00;99.90;;;;;;4444526;32;20772;-66
2021/08/17 00:35:16;;;;;;;0.62;0.45;;;14.00;99.90;;;;;;4434185;32;20090;-66
2021/08/17 00:37:41;;;;;;;0.20;0.20;;;14.00;99.90;;;;;;4430080;32;20115;-65
2021/08/17 00:40:08;;;;;;;0.30;0.30;;;14.00;99.90;;;;;;4428861;32;20534;-65
2021/08/17 00:42:49;;;;;;;1.60;1.10;;;13.90;99.90;;;;;;4429471;32;20073;-66
2021/08/17 00:45:19;;;;;;;;;;;14.00;99.90;;;;;;4429768;32;20420;-65
2021/08/17 00:47:44;;;;;;;0.75;0.30;;;14.00;99.90;;;;;;4429517;32;19994;-66
2021/08/17 00:50:10;;;;;;;0.40;0.40;;;14.00;99.90;;;;;;4429524;32;20066;-66
2021/08/17 00:52:37;;;;;;;0.75;0.37;;;14.00;99.90;;;;;;4430623;32;20090;-66
2021/08/17 00:55:03;;;;;;;0.22;0.22;;;14.00;99.90;;;;;;4429744;32;20066;-66
2021/08/17 00:57:28;;;;;;;1.80;0.45;;;14.00;99.90;;;;;;4430526;32;20090;-66
2021/08/17 00:59:54;;;;;;;2.00;0.50;;;14.00;99.90;;;;;;4439647;32;20061;-65
2021/08/17 01:02:19;;;;;;;7.32;1.55;;;13.90;99.90;;;;;;4447261;32;20057;-66
2021/08/17 01:04:45;;;;;;;0.40;0.40;;;13.90;99.90;;;;;;4447824;32;20088;-66
2021/08/17 01:07:11;;;;;;;1.00;0.52;;;14.00;99.90;;;;;;4445035;32;20065;-66
2021/08/17 01:09:38;;;;;;;0.40;0.40;;;14.00;99.90;;;;;;4432785;32;20443;-66
2021/08/17 01:12:04;;;;;;;0.30;0.30;;;14.00;99.90;;;;;;4432803;32;20538;-65
2021/08/17 01:14:30;;;;;;;0.30;0.30;;;13.90;99.90;;;;;;4432467;32;20072;-65
2021/08/17 01:16:56;;;;;;;1.25;0.95;;;14.00;99.90;;;;;;4433058;32;20069;-65
2021/08/17 01:19:22;;;;;;;0.25;0.25;;;14.10;99.90;;;;;;4447680;32;20073;-65
2021/08/17 01:21:48;;;;;;;0.32;0.32;;;14.10;99.90;;;;;;4448082;32;20134;-65
2021/08/17 01:24:15;;;;;;;0.60;0.60;;;14.10;99.90;;;;;;4448255;32;20064;-65
2021/08/17 01:26:40;;;;;;;2.83;1.48;;;14.20;99.90;;;;;;4432724;32;20115;-65
2021/08/17 01:29:10;;;;;;;3.55;1.90;;;14.10;99.90;;;;;;4432377;32;20503;-66
2021/08/17 01:31:35;;;;;;;0.28;0.28;;;14.20;99.90;;;;;;4432545;32;20561;-65
2021/08/17 01:34:01;;;;;;;0.40;0.40;;;14.00;99.90;;;;;;4431712;32;20081;-65
2021/08/17 01:36:26;;;;;;;1.25;0.43;;;14.10;99.90;;;;;;4432161;32;20111;-65
2021/08/17 01:38:52;;;;;;;0.40;0.40;;;14.10;99.90;;;;;;4446887;32;20077;-65
2021/08/17 01:41:18;;;;;;;7.70;0.40;;;14.10;99.90;;;;;;4446583;32;20173;-65
2021/08/17 01:43:44;;;;;;;0.20;0.20;;;14.10;99.90;;;;;;4447737;32;20084;-65
2021/08/17 01:46:11;;;;;;;0.45;0.45;;;14.00;99.90;;;;;;4446856;32;20112;-67
2021/08/17 01:48:37;;;;;;;0.40;0.40;;;14.10;99.90;;;;;;4434417;32;20431;-66
2021/08/17 01:51:03;;;;;;;2.03;1.15;;;14.00;99.90;;;;;;4441218;32;20090;-66
2021/08/17 01:53:29;;;;;;;0.30;0.30;;;13.90;99.90;;;;;;4431305;32;20551;-66
2021/08/17 01:55:56;;;;;;;0.37;0.32;;;14.00;99.90;;;;;;4432649;32;20073;-66
2021/08/17 01:58:24;;;;;;;0.30;0.30;;;14.00;99.90;;;;;;4432246;32;20064;-66
2021/08/17 02:00:50;;;;;;;0.50;0.50;;;14.00;99.90;;;;;;4431167;32;20081;-66
2021/08/17 02:03:15;;;;;;;0.30;0.30;;;14.00;99.90;;;;;;4430946;32;20077;-67
2021/08/17 02:05:41;;;;;;;0.35;0.35;;;14.00;99.90;;;;;;4432217;32;20448;-67
2021/08/17 02:08:06;;;;;;;0.90;0.60;;;14.00;99.90;;;;;;4440849;32;20068;-66
2021/08/17 02:10:32;;;;;;;0.65;0.50;;;13.80;99.90;;;;;;4445533;32;20058;-65
2021/08/17 02:12:57;;;;;;;0.30;0.30;;;13.90;99.90;;;;;;4446535;32;20085;-65
2021/08/17 02:15:23;;;;;;;0.37;0.37;;;14.00;99.90;;;;;;4447309;32;20085;-65
2021/08/17 02:17:49;;;;;;;1.55;0.50;;;14.00;99.90;;;;;;4446088;32;20168;-66
2021/08/17 02:20:14;;;;;;;2.50;0.40;;;14.10;99.90;;;;;;4447353;32;20461;-66
2021/08/17 02:22:40;;;;;;;3.70;0.88;;;14.00;99.90;;;;;;4447035;32;20149;-66
2021/08/17 02:25:06;;;;;;;0.50;0.50;;;14.10;99.90;;;;;;4446516;32;20069;-66
2021/08/17 02:27:34;;;;;;;0.30;0.30;;;14.10;99.90;;;;;;4447221;32;20160;-66
2021/08/17 02:29:59;;;;;;;0.30;0.30;;;14.20;99.90;;;;;;4446455;32;20072;-66
2021/08/17 02:32:25;;;;;;;0.60;0.60;;;14.20;99.90;;;;;;4445390;32;20081;-66
2021/08/17 02:34:50;;;;;;;0.40;0.40;;;14.20;99.90;;;;;;4437774;32;20061;-66
2021/08/17 02:37:15;;;;;;;0.43;0.43;;;14.30;99.90;;;;;;4434081;32;20089;-66
2021/08/17 02:39:41;;;;;;;1.15;0.98;;;14.30;99.90;;;;;;4446116;32;20057;-65
2021/08/17 02:42:07;;;;;;;0.40;0.40;;;14.30;99.90;;;;;;4431927;32;20069;-66
2021/08/17 02:44:32;;;;;;;0.30;0.30;;;14.30;99.90;;;;;;4446305;32;20077;-66
2021/08/17 02:46:57;;;;;;;0.25;0.25;;;14.20;99.90;;;;;;4443413;32;20105;-66
2021/08/17 02:49:23;;;;;;;0.75;0.40;;;14.20;99.90;;;;;;4430745;32;20571;-66
2021/08/17 02:51:48;;;;;;;0.50;0.50;;;14.20;99.90;;;;;;4435638;32;20167;-66
2021/08/17 02:54:14;;;;;;;2.17;0.75;;;14.20;99.90;;;;;;4447485;32;20060;-66
2021/08/17 02:56:39;;;;;;;0.30;0.30;;;14.10;99.90;;;;;;4446511;32;20403;-66
2021/08/17 02:59:05;;;;;;;0.30;0.30;;;14.20;99.90;;;;;;4430893;32;20070;-66
2021/08/17 03:01:30;;;;;;;0.43;0.40;;;14.20;99.90;;;;;;4431016;32;20115;-64
2021/08/17 03:03:56;;;;;;;0.40;0.40;;;14.20;99.90;;;;;;4430391;32;20065;-65
2021/08/17 03:06:21;;;;;;;0.70;0.32;;;14.20;99.90;;;;;;4431134;32;20085;-65
2021/08/17 03:08:47;;;;;;;0.30;0.30;;;14.20;99.90;;;;;;4441619;32;20066;-65
2021/08/17 03:11:12;;;;;;;0.30;0.30;;;14.20;99.90;;;;;;4446171;32;20086;-65
2021/08/17 03:13:37;;;;;;;0.57;0.57;;;14.30;99.90;;;;;;4445636;32;20061;-65
2021/08/17 03:16:03;;;;;;;1.12;0.75;;;14.40;99.90;;;;;;4438913;32;20509;-65
2021/08/17 03:18:29;;;;;;;0.90;0.85;;;14.40;99.90;;;;;;4428981;32;20161;-65
2021/08/17 03:20:57;;;;;;;0.47;0.47;;;14.40;99.90;;;;;;4430283;32;20073;-65
2021/08/17 03:23:22;;;;;;;0.40;0.40;;;14.40;99.90;;;;;;4429890;32;20425;-65
2021/08/17 03:25:48;;;;;;;0.45;0.45;;;14.40;99.90;;;;;;4434630;32;20068;-65
2021/08/17 03:28:13;;;;;;;0.30;0.30;;;14.40;99.90;;;;;;4446018;32;20074;-65
2021/08/17 03:30:39;;;;;;;0.50;0.50;;;14.40;99.90;;;;;;4446477;32;20123;-66
2021/08/17 03:33:04;;;;;;;0.68;0.50;;;14.40;99.90;;;;;;4445211;32;20068;-66
2021/08/17 03:35:30;;;;;;;1.00;0.80;;;14.50;99.90;;;;;;4436464;32;20069;-65
2021/08/17 03:37:56;;;;;;;0.30;0.30;;;14.50;99.90;;;;;;4446811;32;20521;-66
2021/08/17 03:40:22;;;;;;;0.30;0.30;;;14.50;99.90;;;;;;4431957;32;20061;-65
2021/08/17 03:42:48;;;;;;;0.57;0.57;;;14.50;99.90;;;;;;4445582;32;20068;-66
2021/08/17 03:45:16;;;;;;;0.30;0.30;;;14.50;99.90;;;;;;4446702;32;20418;-66
2021/08/17 03:47:42;;;;;;;0.25;0.25;;;14.50;99.90;;;;;;4444513;32;20081;-65
2021/08/17 03:50:11;;;;;;;0.30;0.30;;;14.40;99.90;;;;;;4445398;32;20376;-66
2021/08/17 03:52:36;;;;;;;0.80;0.30;;;14.40;99.90;;;;;;4446463;32;20391;-66
2021/08/17 03:55:03;;;;;;;0.30;0.30;;;14.30;99.90;;;;;;4431491;32;20088;-67
2021/08/17 03:57:28;;;;;;;0.30;0.30;;;14.50;99.90;;;;;;4430107;32;20077;-66
2021/08/17 03:59:54;;;;;;;0.30;0.30;;;14.50;99.90;;;;;;4429845;32;20131;-66
2021/08/17 04:02:19;;;;;;;0.20;0.20;;;14.60;99.90;;;;;;4429178;32;20105;-66
2021/08/17 04:04:45;;;;;;;0.57;0.57;;;14.60;99.90;;;;;;4429741;32;20069;-67
2021/08/17 04:07:11;;;;;;;0.30;0.30;;;14.70;99.90;;;;;;4429296;32;20066;-66
2021/08/17 04:09:36;;;;;;;0.55;0.55;;;14.60;99.90;;;;;;4430932;32;20069;-66
2021/08/17 04:12:02;;;;;;;1.23;0.80;;;14.70;99.90;;;;;;4430449;32;20452;-66
2021/08/17 04:14:28;;;;;;;0.20;0.20;;;14.70;99.90;;;;;;4429807;32;20065;-66
2021/08/17 04:16:56;;;;;;;0.60;0.52;;;14.70;99.90;;;;;;4439257;32;20065;-66
2021/08/17 04:19:24;;;;;;;0.73;0.52;;;14.70;99.90;;;;;;4444643;32;20070;-66
2021/08/17 04:21:49;;;;;;;0.30;0.30;;;14.70;99.90;;;;;;4438217;32;20101;-67
2021/08/17 04:24:14;;;;;;;0.30;0.30;;;14.70;99.90;;;;;;4443948;32;20069;-67
2021/08/17 04:26:40;;;;;;;0.73;0.73;;;14.70;99.90;;;;;;4441030;32;20465;-66
2021/08/17 04:29:05;;;;;;;0.32;0.32;;;14.80;99.90;;;;;;4431214;32;20484;-67
2021/08/17 04:31:31;;;;;;;4.47;0.60;;;14.70;99.90;;;;;;4429741;32;20428;-66
2021/08/17 04:33:56;;;;;;;0.37;0.37;;;14.80;99.90;;;;;;4430956;32;20064;-67
2021/08/17 04:36:22;;;;;;;0.60;0.60;;;14.80;99.90;;;;;;4439017;32;20081;-66
2021/08/17 04:38:47;;;;;;;0.30;0.30;;;14.80;99.90;;;;;;4429964;32;20093;-66
2021/08/17 04:41:13;;;;;;;1.92;0.40;;;14.80;99.90;;;;;;4430127;32;20086;-66
2021/08/17 04:43:39;;;;;;;0.55;0.40;;;14.80;99.90;;;;;;4428981;32;20065;-66
2021/08/17 04:46:04;;;;;;;0.47;0.30;;;14.80;99.90;;;;;;4433059;32;20065;-66
2021/08/17 04:48:30;;;;;;;2.62;0.50;;;14.80;99.90;;;;;;4445454;32;20073;-66
2021/08/17 04:50:55;;;;;;;2.35;0.45;;;14.80;99.90;;;;;;4444766;32;20058;-66
2021/08/17 04:53:21;;;;;;;0.10;0.10;;;14.90;99.90;;;;;;4441999;32;20163;-66
2021/08/17 04:55:46;;;;;;;0.20;0.20;;;14.90;99.90;;;;;;4445067;32;20102;-66
2021/08/17 04:58:12;;;;;;;0.30;0.30;;;14.90;99.90;;;;;;4444541;32;20061;-66
2021/08/17 05:00:45;;;;;;;0.30;0.30;;;14.90;99.90;;;;;;4431995;32;20069;-66
2021/08/17 05:03:10;;;;;;;5.68;0.52;;;14.90;99.90;;;;;;4428234;32;20271;-66
2021/08/17 05:05:36;;;;;;;0.40;0.40;;;14.80;99.90;;;;;;4438257;32;20057;-66
2021/08/17 05:08:07;;;;;;;0.20;0.20;;;14.80;99.90;;;;;;4441389;32;20441;-66
2021/08/17 05:10:33;;;;;;;0.30;0.30;;;14.80;99.90;;;;;;4442993;32;20073;-66
2021/08/17 05:13:00;;;;;;;0.40;0.40;;;14.90;99.90;;;;;;4437663;32;20089;-66
2021/08/17 05:15:25;;;;;;;0.32;0.32;;;14.90;99.90;;;;;;4428673;32;20506;-66
2021/08/17 05:17:51;;;;;;;0.65;0.50;;;15.00;99.90;;;;;;4421440;32;20089;-66
2021/08/17 05:20:17;;;;;;;5.05;0.55;;;15.00;99.90;;;;;;4440867;32;20093;-66
2021/08/17 05:22:42;;;;;;;0.20;0.20;;;15.00;99.90;;;;;;4441866;32;20086;-66
2021/08/17 05:25:08;;;;;;;0.35;0.35;;;15.10;99.90;;;;;;4426222;32;20069;-66
2021/08/17 05:27:34;;;;;;;0.40;0.40;;;15.00;99.90;;;;;;4425567;32;20831;-66
2021/08/17 05:29:59;;;;;;;0.60;0.60;;;15.00;99.90;;;;;;4435540;32;20114;-66
2021/08/17 05:32:25;;;;;;;2.85;1.00;;;15.00;99.90;;;;;;4414344;32;20081;-67
2021/08/17 05:34:50;;;;;;;0.25;0.25;;;15.00;99.90;;;;;;4437827;32;20086;-66
2021/08/17 05:37:17;;;;;;;0.30;0.30;;;15.00;99.90;;;;;;4430126;32;20131;-66
2021/08/17 05:39:43;;;;;;;19.37;0.88;;;15.10;99.90;;;;;;4433132;32;20073;-65
2021/08/17 05:42:09;;;;;;;0.28;0.28;;;15.10;99.90;;;;;;4435707;32;20089;-66
2021/08/17 05:44:37;;;;;;;0.60;0.60;;;15.00;99.90;;;;;;4433176;32;20132;-65
2021/08/17 05:47:03;;;;;;;0.20;0.20;;;15.00;99.90;;;;;;4435477;32;20073;-66
2021/08/17 05:49:28;;;;;;;1.77;0.77;;;14.80;99.90;;;;;;4427768;32;20085;-67
2021/08/17 05:51:54;;;;;;;0.30;0.30;;;14.70;99.90;;;;;;4425739;32;20085;-65
2021/08/17 05:54:19;;;;;;;0.25;0.25;;;14.70;99.90;;;;;;4436960;32;20123;-66
2021/08/17 05:56:45;;;;;;;0.45;0.40;;;14.70;99.90;;;;;;4433179;32;20105;-66
2021/08/17 05:59:10;;;;;;;1.92;1.30;;;14.70;99.90;;;;;;4435488;32;20074;-65
2021/08/17 06:01:35;;;;;;;0.30;0.30;;;14.70;99.90;;;;;;4431310;32;20502;-65
2021/08/17 06:04:01;;;;;;;0.40;0.40;;;14.70;99.90;;;;;;4431073;32;20097;-65
2021/08/17 06:06:26;;;;;;;0.30;0.30;;;14.80;99.90;;;;;;4438602;32;20077;-66
2021/08/17 06:08:52;;;;;;;0.47;0.40;;;14.80;99.90;;;;;;4433579;32;20095;-65
2021/08/17 06:11:18;;;;;;;2.95;0.75;;;14.70;99.90;;;;;;4433263;32;20834;-67
2021/08/17 06:13:44;;;;;;;0.40;0.40;;;14.80;99.90;;;;;;4437361;32;20065;-67
2021/08/17 06:16:10;;;;;;;0.68;0.68;;;14.80;99.90;;;;;;4434374;32;20069;-65
2021/08/17 06:18:35;;;;;;;0.30;0.30;;;14.80;99.90;;;;;;4428044;32;20076;-66
2021/08/17 06:21:01;;;;;;;0.28;0.28;;;14.80;99.90;;;;;;4428133;32;20193;-66
2021/08/17 06:23:26;;;;;;;0.68;0.45;;;14.80;99.90;;;;;;4425944;32;111090;-65
2021/08/17 06:25:51;;;;;;;0.60;0.60;;;14.90;99.90;;;;;;4433563;32;20057;-65
2021/08/17 06:28:17;;;;;;;0.30;0.30;;;14.90;99.90;;;;;;4432904;32;20427;-65
2021/08/17 06:30:43;;;;;;;0.28;0.28;;;15.00;99.90;;;;;;4428333;32;24023;-65
2021/08/17 06:33:08;;;;;;;0.47;0.47;;;15.00;99.90;;;;;;4428893;32;20076;-65
2021/08/17 06:35:34;;;;;;;0.35;0.35;;;15.00;99.90;;;;;;4427289;32;20522;-66
2021/08/17 06:37:59;;;;;;;5.75;1.10;;;15.10;99.90;;;;;;4429588;32;20085;-65
2021/08/17 06:40:25;;;;;;;3.08;0.90;;;15.10;99.90;;;;;;4416761;32;20065;-65
2021/08/17 06:42:52;;;;;;;0.35;0.35;;;15.20;99.90;;;;;;4429709;32;20076;-65
2021/08/17 06:45:18;;;;;;;4.25;0.70;;;15.20;99.90;;;;;;4431869;32;20176;-65
2021/08/17 06:47:45;;;;;;;0.43;0.43;;;15.20;99.90;;;;;;4436288;32;20067;-64
2021/08/17 06:50:11;;;;;;;0.20;0.20;;;15.20;99.90;;;;;;4427033;32;20248;-65
2021/08/17 06:52:36;;;;;;;1.20;1.10;;;15.20;99.90;;;;;;4435263;32;20057;-65
2021/08/17 06:55:01;;;;;;;1.08;0.80;;;15.20;99.90;;;;;;4433093;32;20069;-65
2021/08/17 06:57:28;;;;;;;0.35;0.35;;;15.20;99.90;;;;;;4430988;32;20597;-65
2021/08/17 06:59:53;;;;;;;0.68;0.68;;;15.30;99.90;;;;;;4425187;32;20356;-64
2021/08/17 07:02:19;;;;;;;0.25;0.25;;;15.40;99.90;;;;;;4413343;32;20092;-65
2021/08/17 07:04:44;;;;;;;1.10;1.00;;;15.40;99.90;;;;;;4432078;32;20061;-66
2021/08/17 07:07:10;;;;;;;0.68;0.40;;;15.30;99.90;;;;;;4433404;32;20073;-65
2021/08/17 07:09:35;;;;;;;17.52;1.60;;;15.20;99.90;;;;;;4430253;32;20094;-66
2021/08/17 07:12:01;;;;;;;0.75;0.75;;;15.20;99.90;;;;;;4428971;32;20078;-64
2021/08/17 07:14:26;;;;;;;0.45;0.45;;;15.30;99.90;;;;;;4431553;32;20109;-65
2021/08/17 07:16:52;;;;;;;0.30;0.30;;;15.30;99.90;;;;;;4424989;32;20510;-64
2021/08/17 07:19:17;;;;;;;0.98;0.52;;;15.40;99.90;;;;;;4434484;32;20092;-65
2021/08/17 07:21:43;;;;;;;0.30;0.30;;;15.40;99.90;;;;;;4428909;32;20496;-65
2021/08/17 07:24:08;;;;;;;0.60;0.60;;;15.50;99.90;;;;;;4427643;32;20659;-65
2021/08/17 07:26:34;;;;;;;0.30;0.30;;;15.60;99.90;;;;;;4430604;32;20073;-65
2021/08/17 07:28:59;;;;;;;0.30;0.30;;;15.70;99.90;;;;;;4415180;32;20817;-65
2021/08/17 07:31:24;;;;;;;1.35;0.80;;;15.80;99.90;;;;;;4434050;32;20119;-66
2021/08/17 07:33:50;;;;;;;2.30;0.65;;;15.80;99.90;;;;;;4423847;32;20065;-66
2021/08/17 07:36:15;;;;;;;0.30;0.30;;;15.70;99.90;;;;;;4426582;32;20085;-65
2021/08/17 07:38:41;;;;;;;0.68;0.68;;;15.70;99.90;;;;;;4434573;32;20510;-65
2021/08/17 07:41:06;;;;;;;0.37;0.37;;;15.70;99.90;;;;;;4436677;32;20096;-65
2021/08/17 07:43:32;;;;;;;0.30;0.30;;;15.60;99.90;;;;;;4436989;32;20149;-64
2021/08/17 07:45:58;;;;;;;0.43;0.43;;;15.60;99.90;;;;;;4435835;32;20073;-65
2021/08/17 07:48:24;;;;;;;0.47;0.47;;;15.60;99.90;;;;;;4428458;32;20148;-66
2021/08/17 07:50:50;;;;;;;0.30;0.30;;;15.60;99.90;;;;;;4410218;32;20523;-66
2021/08/17 07:53:16;;;;;;;0.30;0.30;;;15.60;99.90;;;;;;4428958;32;20601;-66
2021/08/17 07:55:41;;;;;;;0.47;0.47;;;15.60;99.90;;;;;;4417857;32;20124;-66
2021/08/17 07:58:07;;;;;;;0.28;0.28;;;15.70;99.90;;;;;;4431041;32;20131;-65
2021/08/17 08:00:33;;;;;;;0.40;0.40;;;15.70;99.90;;;;;;4425108;32;20073;-66
2021/08/17 08:02:58;;;;;;;0.30;0.30;;;15.70;99.90;;;;;;4421269;32;20115;-65
2021/08/17 08:05:23;;;;;;;0.30;0.30;;;15.70;99.90;;;;;;4429539;32;20061;-65
2021/08/17 08:07:49;;;;;;;0.37;0.37;;;15.70;99.90;;;;;;4435202;32;20494;-65
2021/08/17 08:10:15;;;;;;;0.20;0.20;;;15.80;99.90;;;;;;4437676;32;20380;-65
2021/08/17 08:12:40;;;;;;;1.77;0.60;;;15.70;99.90;;;;;;4423661;32;20089;-66
2021/08/17 08:15:06;;;;;;;0.40;0.40;;;15.60;99.90;;;;;;4435474;32;20092;-65
2021/08/17 08:17:32;;;;;;;0.95;0.95;;;15.50;99.90;;;;;;4434639;32;20073;-66
2021/08/17 08:19:57;;;;;;;0.20;0.20;;;15.50;99.90;;;;;;4423818;32;20056;-65
2021/08/17 08:22:23;;;;;;;1.10;0.50;;;15.60;99.90;;;;;;4429199;32;20133;-65
2021/08/17 08:24:48;;;;;;;0.93;0.85;;;15.60;99.90;;;;;;4431431;32;20073;-66
2021/08/17 08:27:14;;;;;;;1.85;1.05;;;15.50;99.90;;;;;;4423111;32;20140;-66
2021/08/17 08:29:40;;;;;;;0.45;0.45;;;15.50;99.90;;;;;;4426962;32;20271;-66
2021/08/17 08:32:07;;;;;;;0.30;0.30;;;15.60;99.90;;;;;;4426558;32;20093;-66
2021/08/17 08:34:32;;;;;;;0.30;0.30;;;15.70;99.90;;;;;;4429285;32;20490;-66
2021/08/17 08:36:58;;;;;;;0.40;0.40;;;15.60;99.90;;;;;;4422093;32;20076;-66
2021/08/17 08:39:24;;;;;;;0.28;0.28;;;15.60;99.90;;;;;;4432432;32;20526;-66
2021/08/17 08:41:50;;;;;;;0.40;0.40;;;15.50;99.90;;;;;;4435055;32;20065;-66
2021/08/17 08:44:17;;;;;;;0.30;0.30;;;15.50;99.90;;;;;;4425432;32;20069;-66
2021/08/17 08:46:43;;;;;;;0.40;0.40;;;15.40;99.90;;;;;;4409027;32;20136;-66
2021/08/17 08:49:09;;;;;;;0.40;0.40;;;15.40;99.90;;;;;;4413190;32;20077;-65
2021/08/17 08:51:36;;;;;;;0.35;0.35;;;15.50;99.90;;;;;;4401726;32;20081;-62
2021/08/17 08:54:02;;;;;;;0.30;0.30;;;15.40;99.90;;;;;;4423744;32;20069;-65
2021/08/17 08:56:29;;;;;;;9.63;1.08;;;15.50;99.90;;;;;;4420591;32;20789;-66
2021/08/17 08:58:55;;;;;;;3.78;0.30;;;15.40;99.90;;;;;;4426216;32;20168;-65
2021/08/17 09:01:22;;;;;;;0.30;0.30;;;15.40;99.90;;;;;;4421794;32;20085;-65
2021/08/17 09:03:50;;;;;;;0.40;0.40;;;15.30;99.90;;;;;;4421543;32;20486;-66
2021/08/17 09:06:18;;;;;;;0.20;0.20;;;15.40;99.90;;;;;;4425020;32;20057;-65
2021/08/17 09:08:44;;;;;;;0.20;0.20;;;15.30;99.90;;;;;;4405298;32;20095;-66
2021/08/17 09:11:15;;;;;;;0.50;0.50;;;15.40;99.90;;;;;;4429043;32;20093;-66
2021/08/17 09:13:41;;;;;;;2.65;0.65;;;15.40;99.90;;;;;;4432404;32;20431;-66
2021/08/17 09:16:28;;;;;;;0.35;0.35;;;15.40;99.90;;;;;;4431107;32;20070;-66
2021/08/17 09:18:54;;;;;;;0.30;0.30;;;15.40;99.90;;;;;;4423498;32;20072;-66
2021/08/17 09:21:41;;;;;;;1.23;0.60;;;15.40;99.90;;;;;;4422197;32;20077;-66
2021/08/17 09:24:26;;;;;;;4.05;0.80;;;15.40;99.90;;;;;;4407763;32;20208;-66
2021/08/17 09:26:55;;;;;;;0.45;0.45;;;15.40;99.90;;;;;;4429185;32;20094;-64
2021/08/17 09:29:24;;;;;;;2.25;0.75;;;15.40;99.90;;;;;;4429962;32;20380;-65
2021/08/17 09:31:52;;;;;;;0.25;0.25;;;15.50;99.90;;;;;;4435593;32;20069;-66
2021/08/17 09:34:19;;;;;;;0.20;0.20;;;15.50;99.90;;;;;;4432674;32;20076;-66
2021/08/17 09:36:46;;;;;;;1.58;0.85;;;15.50;99.90;;;;;;4438421;32;20565;-66
2021/08/17 09:39:26;;;;;;;0.40;0.40;;;15.50;99.90;;;;;;4438667;32;20056;-66
2021/08/17 09:42:04;;;;;;;0.40;0.40;;;15.60;99.90;;;;;;4434010;32;20711;-66
2021/08/17 09:44:30;;;;;;;0.37;0.37;;;15.70;99.90;;;;;;4431992;32;20082;-66
2021/08/17 09:46:55;;;;;;;5.30;1.83;;;15.70;99.90;;;;;;4435233;32;20118;-66
2021/08/17 09:49:26;;;;;;;0.40;0.40;;;15.70;99.90;;;;;;4435371;32;20057;-66
2021/08/17 09:51:52;;;;;;;1.77;0.40;;;15.80;99.90;;;;;;4435474;32;20073;-66
2021/08/17 09:54:20;;;;;;;0.77;0.75;;;15.80;99.90;;;;;;4428326;32;20172;-66
2021/08/17 09:57:03;;;;;;;0.30;0.30;;;15.90;99.90;;;;;;4430616;32;20113;-66
2021/08/17 09:59:31;;;;;;;0.32;0.32;;;15.80;99.90;;;;;;4430031;32;20124;-66
2021/08/17 10:01:57;;;;;;;0.80;0.57;;;15.80;99.90;;;;;;4435495;32;20065;-65
2021/08/17 10:04:23;;;;;;;0.70;0.70;;;15.80;99.90;;;;;;4431758;32;20503;-66
2021/08/17 10:06:51;;;;;;;0.73;0.73;;;15.80;99.90;;;;;;4430533;32;20085;-66
2021/08/17 10:09:18;;;;;;;0.70;0.70;;;15.90;99.90;;;;;;4419103;32;20523;-64
2021/08/17 10:11:44;;;;;;;1.65;0.90;;;15.90;99.90;;;;;;4417144;32;20599;-65
2021/08/17 10:14:11;;;;;;;0.20;0.20;;;16.00;99.90;;;;;;4435545;32;20065;-66
2021/08/17 10:16:37;;;;;;;1.45;0.88;;;16.10;99.90;;;;;;4430415;32;20599;-66
2021/08/17 10:19:04;;;;;;;5.35;0.60;;;16.20;99.90;;;;;;4431938;32;20081;-66
2021/08/17 10:21:31;;;;;;;0.80;0.80;;;16.30;99.90;;;;;;4437516;32;20141;-66
2021/08/17 10:23:56;;;;;;;1.77;0.93;;;16.30;99.90;;;;;;4427621;32;20398;-66
2021/08/17 10:26:32;;;;;;;0.30;0.30;;;16.40;99.90;;;;;;4436025;32;20085;-65
2021/08/17 10:28:58;;;;;;;0.55;0.55;;;16.60;99.90;;;;;;4430763;32;20469;-65
2021/08/17 10:31:28;;;;;;;0.45;0.45;;;16.80;99.90;;;;;;4436124;32;20085;-66
2021/08/17 10:34:07;;;;;;;0.30;0.30;;;16.90;99.90;;;;;;4433188;32;20089;-66
2021/08/17 10:36:35;;;;;;;0.40;0.40;;;17.00;99.90;;;;;;4433493;32;20069;-66
2021/08/17 10:39:04;;;;;;;5.15;0.62;;;17.00;99.90;;;;;;4432249;32;20165;-66
2021/08/17 10:41:33;;;;;;;0.25;0.25;;;16.90;99.90;;;;;;4435086;32;20073;-64
2021/08/17 10:44:01;;;;;;;0.20;0.20;;;16.80;99.90;;;;;;4422198;32;20058;-65
2021/08/17 10:46:48;;;;;;;0.50;0.50;;;16.80;99.90;;;;;;4433666;32;20119;-65
2021/08/17 10:49:46;;;;;;;0.45;0.45;;;16.80;99.90;;;;;;4424198;32;20081;-64
2021/08/17 10:52:29;;;;;;;0.22;0.22;;;16.80;99.90;;;;;;4431313;32;20073;-65
2021/08/17 10:55:19;;;;;;;0.20;0.20;;;16.70;99.90;;;;;;4428934;32;20073;-65
2021/08/17 10:58:03;;;;;;;0.40;0.40;;;16.60;99.90;;;;;;4419414;32;20147;-65
2021/08/17 11:00:51;;;;;;;0.20;0.20;;;16.60;99.90;;;;;;4432621;32;20096;-65
2021/08/17 11:03:52;;;;;;;0.28;0.28;;;16.70;99.90;;;;;;4418496;32;20094;-65
2021/08/17 11:06:47;;;;;;;0.40;0.40;;;16.70;99.90;;;;;;4435479;32;20065;-65
2021/08/17 11:09:28;;;;;;;0.30;0.30;;;16.60;99.90;;;;;;4417369;32;20514;-65
2021/08/17 11:11:56;;;;;;;0.37;0.37;;;16.70;99.90;;;;;;4422733;32;20077;-65
2021/08/17 11:14:24;;;;;;;0.30;0.30;;;16.80;99.90;;;;;;4430109;32;20142;-64
2021/08/17 11:16:57;;;;;;;3.83;0.82;;;16.90;99.90;;;;;;4431363;32;20143;-65
2021/08/17 11:19:25;;;;;;;0.88;0.45;;;16.90;99.90;;;;;;4431225;32;20090;-65
2021/08/17 11:21:53;;;;;;;0.50;0.50;;;16.90;99.90;;;;;;4436529;32;20085;-65
2021/08/17 11:24:25;;;;;;;0.75;0.52;;;16.80;99.90;;;;;;4432048;32;20176;-65
2021/08/17 11:26:54;;;;;;;0.62;0.55;;;16.50;99.90;;;;;;4432678;32;20061;-67
2021/08/17 11:29:26;;;;;;;0.43;0.43;;;16.20;99.90;;;;;;4431636;32;20416;-66
2021/08/17 11:31:53;;;;;;;0.40;0.40;;;15.80;99.90;;;;;;4434929;32;20143;-66
2021/08/17 11:34:24;;;;;;;0.40;0.40;;;15.60;99.90;;;;;;4430991;32;20695;-64
2021/08/17 11:36:53;;;;;;;0.20;0.20;;;15.50;99.90;;;;;;4430306;32;20378;-64
2021/08/17 11:39:23;;;;;;;0.68;0.68;;;15.50;99.90;;;;;;4434097;32;20061;-65
2021/08/17 11:41:51;;;;;;;0.40;0.40;;;15.40;99.90;;;;;;4430874;32;20089;-65
2021/08/17 11:44:17;;;;;;;3.17;1.05;;;15.20;99.90;;;;;;4429465;32;20098;-66
2021/08/17 11:46:43;;;;;;;0.47;0.47;;;15.30;99.90;;;;;;4429083;32;20069;-65
2021/08/17 11:49:26;;;;;;;0.22;0.22;;;15.50;99.90;;;;;;4427113;32;20077;-65
2021/08/17 11:52:16;;;;;;;12.07;0.75;;;15.80;99.90;;;;;;4436695;32;20364;-64
2021/08/17 11:54:51;;;;;;;9.43;2.47;;;16.30;99.90;;;;;;4418520;32;20062;-64
2021/08/17 11:57:20;;;;;;;0.30;0.30;;;16.60;99.90;;;;;;4433893;32;20116;-66
2021/08/17 11:59:47;;;;;;;0.68;0.68;;;17.10;99.90;;;;;;4432083;32;20069;-66
2021/08/17 12:02:22;;;;;;;2.95;1.58;;;17.20;99.90;;;;;;4429536;32;20084;-65
2021/08/17 12:04:57;;;;;;;1.27;1.15;;;17.20;99.90;;;;;;4431762;32;20065;-65
2021/08/17 12:07:25;;;;;;;9.77;1.10;;;17.00;99.90;;;;;;4430265;32;20069;-65
2021/08/17 12:09:52;;;;;;;1.15;0.45;;;17.00;99.90;;;;;;4426695;32;20093;-65
2021/08/17 12:12:20;;;;;;;0.95;0.90;;;17.00;99.90;;;;;;4417735;32;20168;-65
2021/08/17 12:15:06;;;;;;;0.37;0.37;;;17.10;99.90;;;;;;4434552;32;20086;-65
2021/08/17 12:17:31;;;;;;;0.30;0.30;;;17.10;99.90;;;;;;4434170;32;20093;-65
2021/08/17 12:19:57;;;;;;;0.30;0.30;;;17.20;99.90;;;;;;4421444;32;20069;-66
2021/08/17 12:22:26;;;;;;;0.30;0.30;;;17.20;99.90;;;;;;4432347;32;20093;-66
2021/08/17 12:24:54;;;;;;;0.28;0.28;;;17.10;99.90;;;;;;4437245;32;20108;-66
2021/08/17 12:27:22;;;;;;;0.75;0.75;;;17.10;99.90;;;;;;4418867;32;20478;-66
2021/08/17 12:29:48;;;;;;;0.60;0.60;;;17.00;99.90;;;;;;4424888;32;20088;-67
2021/08/17 12:32:17;;;;;;;0.43;0.43;;;16.90;99.90;;;;;;4434261;32;20511;-66
2021/08/17 12:34:44;;;;;;;0.30;0.30;;;16.80;99.90;;;;;;4433463;32;20118;-65
2021/08/17 12:37:25;;;;;;;0.30;0.30;;;16.80;99.90;;;;;;4419210;32;20061;-66
2021/08/17 12:39:54;;;;;;;0.55;0.55;;;16.90;99.90;;;;;;4433478;32;20201;-65
2021/08/17 12:42:19;;;;;;;0.30;0.30;;;17.00;99.90;;;;;;4418453;32;20057;-65
2021/08/17 12:44:45;;;;;;;0.40;0.40;;;17.20;99.90;;;;;;4434727;32;20131;-66
2021/08/17 12:47:20;;;;;;;1.65;0.80;;;17.20;99.90;;;;;;4430545;32;20084;-66
2021/08/17 12:49:52;;;;;;;0.57;0.57;;;17.20;99.90;;;;;;4432284;32;20723;-66